Terminal Aerodrome Forecast
Issued by NWS St Louis, MO

Home | Current Version | Previous Version | Text Only | Print | Product List | Glossary On
Versions: 1 2 3 4 5 6 7 8 9 10 11 12 13 14 15 16 17 18 19 20 21 22 23 24 25 26 27 28 29 30 31 32 33 34 35 36 37
306
FTUS43 KLSX 010102 AAB
TAFSTL
TAF AMD
KSTL 010102Z 0101/0206 12010KT P6SM BKN040 OVC080
      TEMPO 0101/0102 VRB10G20KT 5SM -TSRA OVC025CB
     FM010200 25006KT P6SM SCT040 BKN250
     FM010600 27005KT 5SM BR SCT060
     FM011500 29009KT P6SM BKN040
     FM020100 31008KT P6SM SCT050=

USA.gov is the U.S. government's official web portal to all federal, state and local government web resources and services.